sensor_id;sensor_type;location;lat;lon;timestamp;pressure;altitude;pressure_sealevel;temperature;humidity
69971;BME280;57301;50.328;8.542;2023-08-01T00:00:02;97213.34;;;16.55;100.00
69971;BME280;57301;50.328;8.542;2023-08-01T00:02:31;97206.56;;;16.52;100.00
69971;BME280;57301;50.328;8.542;2023-08-01T00:04:57;97206.31;;;16.54;100.00
69971;BME280;57301;50.328;8.542;2023-08-01T00:07:27;97204.06;;;16.76;100.00
69971;BME280;57301;50.328;8.542;2023-08-01T00:09:54;97203.66;;;16.72;100.00
69971;BME280;57301;50.328;8.542;2023-08-01T00:12:20;97188.81;;;16.45;100.00
69971;BME280;57301;50.328;8.542;2023-08-01T00:14:47;97184.94;;;16.41;100.00
69971;BME280;57301;50.328;8.542;2023-08-01T00:17:14;97173.72;;;16.44;100.00
69971;BME280;57301;50.328;8.542;2023-08-01T00:19:40;97161.16;;;16.37;100.00
69971;BME280;57301;50.328;8.542;2023-08-01T00:22:07;97148.72;;;16.18;100.00
69971;BME280;57301;50.328;8.542;2023-08-01T00:24:34;97139.53;;;16.26;100.00
69971;BME280;57301;50.328;8.542;2023-08-01T00:27:01;97126.47;;;16.29;100.00
69971;BME280;57301;50.328;8.542;2023-08-01T00:29:27;97129.09;;;16.18;100.00
69971;BME280;57301;50.328;8.542;2023-08-01T00:31:54;97126.09;;;16.26;100.00
69971;BME280;57301;50.328;8.542;2023-08-01T00:34:20;97117.13;;;16.32;100.00
69971;BME280;57301;50.328;8.542;2023-08-01T00:36:47;97107.72;;;16.04;100.00
69971;BME280;57301;50.328;8.542;2023-08-01T00:39:15;97106.50;;;16.00;100.00
69971;BME280;57301;50.328;8.542;2023-08-01T00:41:42;97092.72;;;16.15;100.00
69971;BME280;57301;50.328;8.542;2023-08-01T00:44:08;97089.56;;;16.18;100.00
69971;BME280;57301;50.328;8.542;2023-08-01T00:46:34;97087.25;;;16.22;100.00
69971;BME280;57301;50.328;8.542;2023-08-01T00:49:02;97073.25;;;16.31;100.00
69971;BME280;57301;50.328;8.542;2023-08-01T00:51:30;97078.38;;;16.39;100.00
69971;BME280;57301;50.328;8.542;2023-08-01T00:53:57;97072.59;;;16.36;100.00
69971;BME280;57301;50.328;8.542;2023-08-01T00:56:24;97064.53;;;16.36;100.00
69971;BME280;57301;50.328;8.542;2023-08-01T00:58:50;97065.66;;;16.47;100.00
69971;BME280;57301;50.328;8.542;2023-08-01T01:01:17;97076.09;;;16.55;100.00
69971;BME280;57301;50.328;8.542;2023-08-01T01:03:44;97071.84;;;16.47;100.00
69971;BME280;57301;50.328;8.542;2023-08-01T01:06:23;97062.03;;;16.53;100.00
69971;BME280;57301;50.328;8.542;2023-08-01T01:08:51;97051.88;;;16.36;100.00
69971;BME280;57301;50.328;8.542;2023-08-01T01:11:17;97043.44;;;16.51;100.00
69971;BME280;57301;50.328;8.542;2023-08-01T01:13:44;97052.78;;;16.49;100.00
69971;BME280;57301;50.328;8.542;2023-08-01T01:16:10;97044.63;;;16.37;100.00
69971;BME280;57301;50.328;8.542;2023-08-01T01:18:37;97031.88;;;16.62;100.00
69971;BME280;57301;50.328;8.542;2023-08-01T01:21:03;97039.88;;;16.69;100.00
69971;BME280;57301;50.328;8.542;2023-08-01T01:23:31;97022.16;;;16.61;100.00
69971;BME280;57301;50.328;8.542;2023-08-01T01:26:00;97016.94;;;16.66;100.00
69971;BME280;57301;50.328;8.542;2023-08-01T01:28:28;97016.66;;;16.56;100.00
69971;BME280;57301;50.328;8.542;2023-08-01T01:30:55;97014.91;;;16.62;100.00
69971;BME280;57301;50.328;8.542;2023-08-01T01:33:22;97021.88;;;16.70;100.00
69971;BME280;57301;50.328;8.542;2023-08-01T01:35:48;97026.28;;;16.64;100.00
69971;BME280;57301;50.328;8.542;2023-08-01T01:38:15;97018.78;;;16.84;100.00
69971;BME280;57301;50.328;8.542;2023-08-01T01:40:42;97004.38;;;16.79;100.00
69971;BME280;57301;50.328;8.542;2023-08-01T01:43:09;97002.88;;;16.83;100.00
69971;BME280;57301;50.328;8.542;2023-08-01T01:45:36;96993.72;;;16.84;100.00
69971;BME280;57301;50.328;8.542;2023-08-01T01:48:02;96979.25;;;16.66;100.00
69971;BME280;57301;50.328;8.542;2023-08-01T01:50:29;96971.25;;;16.78;100.00
69971;BME280;57301;50.328;8.542;2023-08-01T01:52:55;96958.59;;;16.79;100.00
69971;BME280;57301;50.328;8.542;2023-08-01T01:55:22;96972.09;;;16.90;100.00
69971;BME280;57301;50.328;8.542;2023-08-01T01:57:48;96978.16;;;16.86;100.00
69971;BME280;57301;50.328;8.542;2023-08-01T02:00:15;96975.50;;;16.98;100.00
69971;BME280;57301;50.328;8.542;2023-08-01T02:02:41;96961.38;;;16.72;100.00
69971;BME280;57301;50.328;8.542;2023-08-01T02:05:08;96970.19;;;16.79;100.00
69971;BME280;57301;50.328;8.542;2023-08-01T02:07:34;96954.50;;;16.76;100.00
69971;BME280;57301;50.328;8.542;2023-08-01T02:10:01;96952.19;;;17.03;100.00
69971;BME280;57301;50.328;8.542;2023-08-01T02:12:28;96939.41;;;16.99;100.00
69971;BME280;57301;50.328;8.542;2023-08-01T02:14:58;96925.50;;;17.02;100.00
69971;BME280;57301;50.328;8.542;2023-08-01T02:17:25;96928.88;;;16.85;100.00
69971;BME280;57301;50.328;8.542;2023-08-01T02:19:51;96916.34;;;16.91;100.00
69971;BME280;57301;50.328;8.542;2023-08-01T02:22:18;96909.78;;;16.99;100.00
69971;BME280;57301;50.328;8.542;2023-08-01T02:24:44;96907.91;;;16.87;100.00
69971;BME280;57301;50.328;8.542;2023-08-01T02:27:11;96909.66;;;16.93;100.00
69971;BME280;57301;50.328;8.542;2023-08-01T02:29:37;96895.50;;;16.86;100.00
69971;BME280;57301;50.328;8.542;2023-08-01T02:32:04;96897.13;;;16.87;100.00
69971;BME280;57301;50.328;8.542;2023-08-01T02:34:31;96900.22;;;17.03;100.00
69971;BME280;57301;50.328;8.542;2023-08-01T02:36:57;96891.06;;;17.04;100.00
69971;BME280;57301;50.328;8.542;2023-08-01T02:39:25;96896.22;;;16.82;100.00
69971;BME280;57301;50.328;8.542;2023-08-01T02:41:51;96887.50;;;16.68;100.00
69971;BME280;57301;50.328;8.542;2023-08-01T02:44:18;96889.13;;;16.57;100.00
69971;BME280;57301;50.328;8.542;2023-08-01T02:46:44;96881.88;;;16.58;100.00
69971;BME280;57301;50.328;8.542;2023-08-01T02:49:11;96885.28;;;16.65;100.00
69971;BME280;57301;50.328;8.542;2023-08-01T02:51:37;96877.91;;;16.60;100.00
69971;BME280;57301;50.328;8.542;2023-08-01T02:54:04;96878.56;;;16.56;100.00
69971;BME280;57301;50.328;8.542;2023-08-01T02:56:30;96881.66;;;16.59;100.00
69971;BME280;57301;50.328;8.542;2023-08-01T02:58:56;96881.97;;;16.63;100.00
69971;BME280;57301;50.328;8.542;2023-08-01T03:01:23;96891.47;;;16.65;100.00
69971;BME280;57301;50.328;8.542;2023-08-01T03:03:50;96903.50;;;16.63;100.00
69971;BME280;57301;50.328;8.542;2023-08-01T03:06:16;96896.59;;;16.55;100.00
69971;BME280;57301;50.328;8.542;2023-08-01T03:08:44;96888.19;;;16.52;100.00
69971;BME280;57301;50.328;8.542;2023-08-01T03:11:11;96895.66;;;16.50;100.00
69971;BME280;57301;50.328;8.542;2023-08-01T03:13:37;96872.97;;;16.46;100.00
69971;BME280;57301;50.328;8.542;2023-08-01T03:16:04;96874.84;;;16.57;100.00
69971;BME280;57301;50.328;8.542;2023-08-01T03:18:31;96875.06;;;16.55;100.00
69971;BME280;57301;50.328;8.542;2023-08-01T03:20:57;96867.09;;;16.49;100.00
69971;BME280;57301;50.328;8.542;2023-08-01T03:23:24;96872.84;;;16.52;100.00
69971;BME280;57301;50.328;8.542;2023-08-01T03:25:50;96862.69;;;16.54;100.00
69971;BME280;57301;50.328;8.542;2023-08-01T03:28:17;96867.25;;;16.54;100.00
69971;BME280;57301;50.328;8.542;2023-08-01T03:30:44;96850.63;;;16.57;100.00
69971;BME280;57301;50.328;8.542;2023-08-01T03:33:10;96833.06;;;16.54;100.00
69971;BME280;57301;50.328;8.542;2023-08-01T03:35:37;96831.69;;;16.52;100.00
69971;BME280;57301;50.328;8.542;2023-08-01T03:38:03;96822.69;;;16.58;100.00
69971;BME280;57301;50.328;8.542;2023-08-01T03:40:30;96803.13;;;16.62;100.00
69971;BME280;57301;50.328;8.542;2023-08-01T03:42:56;96794.22;;;16.62;100.00
69971;BME280;57301;50.328;8.542;2023-08-01T03:45:23;96798.91;;;16.66;100.00
69971;BME280;57301;50.328;8.542;2023-08-01T03:47:50;96825.81;;;16.66;100.00
69971;BME280;57301;50.328;8.542;2023-08-01T03:50:16;96812.03;;;16.75;100.00
69971;BME280;57301;50.328;8.542;2023-08-01T03:52:43;96817.44;;;16.75;100.00
69971;BME280;57301;50.328;8.542;2023-08-01T03:55:10;96822.81;;;16.75;100.00
69971;BME280;57301;50.328;8.542;2023-08-01T03:57:36;96833.25;;;16.71;100.00
69971;BME280;57301;50.328;8.542;2023-08-01T04:00:07;96837.41;;;16.67;100.00
69971;BME280;57301;50.328;8.542;2023-08-01T04:02:41;96839.03;;;16.68;100.00
69971;BME280;57301;50.328;8.542;2023-08-01T04:05:10;96848.56;;;16.71;100.00
69971;BME280;57301;50.328;8.542;2023-08-01T04:07:37;96851.03;;;16.72;100.00
69971;BME280;57301;50.328;8.542;2023-08-01T04:10:04;96855.84;;;16.70;100.00
69971;BME280;57301;50.328;8.542;2023-08-01T04:12:32;96865.50;;;16.59;100.00
69971;BME280;57301;50.328;8.542;2023-08-01T04:14:59;96863.75;;;16.65;100.00
69971;BME280;57301;50.328;8.542;2023-08-01T04:17:26;96860.69;;;16.61;100.00
69971;BME280;57301;50.328;8.542;2023-08-01T04:19:53;96855.53;;;16.60;100.00
69971;BME280;57301;50.328;8.542;2023-08-01T04:22:20;96853.31;;;16.57;100.00
69971;BME280;57301;50.328;8.542;2023-08-01T04:24:47;96845.84;;;16.59;100.00
69971;BME280;57301;50.328;8.542;2023-08-01T04:27:13;96846.28;;;16.56;100.00
69971;BME280;57301;50.328;8.542;2023-08-01T04:29:40;96850.63;;;16.57;100.00
69971;BME280;57301;50.328;8.542;2023-08-01T04:32:07;96843.38;;;16.57;100.00
69971;BME280;57301;50.328;8.542;2023-08-01T04:34:34;96843.03;;;16.54;100.00
69971;BME280;57301;50.328;8.542;2023-08-01T04:37:00;96831.44;;;16.53;100.00
69971;BME280;57301;50.328;8.542;2023-08-01T04:39:27;96834.72;;;16.55;100.00
69971;BME280;57301;50.328;8.542;2023-08-01T04:41:53;96826.75;;;16.60;100.00
69971;BME280;57301;50.328;8.542;2023-08-01T04:44:20;96813.06;;;16.62;100.00
69971;BME280;57301;50.328;8.542;2023-08-01T04:46:48;96823.94;;;16.67;100.00
69971;BME280;57301;50.328;8.542;2023-08-01T04:49:14;96826.22;;;16.70;100.00
69971;BME280;57301;50.328;8.542;2023-08-01T04:51:41;96831.59;;;16.70;100.00
69971;BME280;57301;50.328;8.542;2023-08-01T04:54:07;96831.69;;;16.75;100.00
69971;BME280;57301;50.328;8.542;2023-08-01T04:56:34;96831.13;;;16.73;100.00
69971;BME280;57301;50.328;8.542;2023-08-01T04:59:00;96811.34;;;16.79;100.00
69971;BME280;57301;50.328;8.542;2023-08-01T05:01:28;96799.88;;;16.72;100.00
69971;BME280;57301;50.328;8.542;2023-08-01T05:03:55;96805.84;;;16.74;100.00
69971;BME280;57301;50.328;8.542;2023-08-01T05:06:21;96794.09;;;16.69;100.00
69971;BME280;57301;50.328;8.542;2023-08-01T05:08:47;96785.94;;;16.75;100.00
69971;BME280;57301;50.328;8.542;2023-08-01T05:11:14;96774.44;;;16.68;100.00
69971;BME280;57301;50.328;8.542;2023-08-01T05:13:40;96772.28;;;16.77;100.00
69971;BME280;57301;50.328;8.542;2023-08-01T05:16:07;96791.44;;;16.80;100.00
69971;BME280;57301;50.328;8.542;2023-08-01T05:18:34;96815.56;;;16.87;100.00
69971;BME280;57301;50.328;8.542;2023-08-01T05:21:00;96842.03;;;16.90;100.00
69971;BME280;57301;50.328;8.542;2023-08-01T05:23:27;96842.13;;;16.83;100.00
69971;BME280;57301;50.328;8.542;2023-08-01T05:25:53;96848.22;;;16.90;100.00
69971;BME280;57301;50.328;8.542;2023-08-01T05:28:20;96848.91;;;16.74;100.00
69971;BME280;57301;50.328;8.542;2023-08-01T05:30:46;96868.44;;;16.58;100.00
69971;BME280;57301;50.328;8.542;2023-08-01T05:33:13;96871.91;;;16.47;100.00
69971;BME280;57301;50.328;8.542;2023-08-01T05:35:40;96873.88;;;16.39;100.00
69971;BME280;57301;50.328;8.542;2023-08-01T05:38:06;96865.91;;;16.45;100.00
69971;BME280;57301;50.328;8.542;2023-08-01T05:40:33;96875.88;;;16.44;100.00
69971;BME280;57301;50.328;8.542;2023-08-01T05:42:59;96895.03;;;16.36;100.00
69971;BME280;57301;50.328;8.542;2023-08-01T05:45:29;96898.47;;;16.55;100.00
69971;BME280;57301;50.328;8.542;2023-08-01T05:47:58;96912.50;;;16.57;100.00
69971;BME280;57301;50.328;8.542;2023-08-01T05:50:25;96918.09;;;16.44;100.00
69971;BME280;57301;50.328;8.542;2023-08-01T05:52:52;96917.09;;;16.26;100.00
69971;BME280;57301;50.328;8.542;2023-08-01T05:55:19;96910.19;;;16.19;100.00
69971;BME280;57301;50.328;8.542;2023-08-01T05:57:46;96921.59;;;16.02;100.00
69971;BME280;57301;50.328;8.542;2023-08-01T06:00:13;96908.16;;;16.02;100.00
69971;BME280;57301;50.328;8.542;2023-08-01T06:02:40;96910.91;;;15.77;100.00
69971;BME280;57301;50.328;8.542;2023-08-01T06:05:10;96923.03;;;15.68;100.00
69971;BME280;57301;50.328;8.542;2023-08-01T06:07:36;96935.50;;;15.63;100.00
69971;BME280;57301;50.328;8.542;2023-08-01T06:10:03;96946.09;;;15.76;100.00
69971;BME280;57301;50.328;8.542;2023-08-01T06:12:30;96948.13;;;15.62;100.00
69971;BME280;57301;50.328;8.542;2023-08-01T06:14:57;96939.44;;;15.60;100.00
69971;BME280;57301;50.328;8.542;2023-08-01T06:17:23;96938.03;;;15.76;100.00
69971;BME280;57301;50.328;8.542;2023-08-01T06:19:50;96940.63;;;15.82;100.00
69971;BME280;57301;50.328;8.542;2023-08-01T06:22:17;96945.84;;;15.77;100.00
69971;BME280;57301;50.328;8.542;2023-08-01T06:24:44;96941.09;;;15.79;99.83
69971;BME280;57301;50.328;8.542;2023-08-01T06:27:10;96938.69;;;15.90;100.00
69971;BME280;57301;50.328;8.542;2023-08-01T06:29:37;96945.94;;;15.89;99.18
69971;BME280;57301;50.328;8.542;2023-08-01T06:32:04;96953.78;;;15.91;98.93
69971;BME280;57301;50.328;8.542;2023-08-01T06:34:31;96954.44;;;16.04;98.91
69971;BME280;57301;50.328;8.542;2023-08-01T06:36:58;96964.81;;;16.01;98.66
69971;BME280;57301;50.328;8.542;2023-08-01T06:39:24;96974.31;;;15.85;98.12
69971;BME280;57301;50.328;8.542;2023-08-01T06:41:51;96969.31;;;15.89;97.99
69971;BME280;57301;50.328;8.542;2023-08-01T06:44:18;96986.56;;;15.99;97.96
69971;BME280;57301;50.328;8.542;2023-08-01T06:46:44;96994.47;;;16.12;97.76
69971;BME280;57301;50.328;8.542;2023-08-01T06:49:11;96996.25;;;16.00;97.35
69971;BME280;57301;50.328;8.542;2023-08-01T06:51:40;97002.38;;;16.07;96.75
69971;BME280;57301;50.328;8.542;2023-08-01T06:54:08;97015.22;;;16.24;96.02
69971;BME280;57301;50.328;8.542;2023-08-01T06:56:34;97017.59;;;16.32;95.24
69971;BME280;57301;50.328;8.542;2023-08-01T06:59:01;97011.84;;;16.28;94.75
69971;BME280;57301;50.328;8.542;2023-08-01T07:01:27;97010.34;;;16.62;94.21
69971;BME280;57301;50.328;8.542;2023-08-01T07:03:54;97007.72;;;17.16;91.82
69971;BME280;57301;50.328;8.542;2023-08-01T07:06:23;97013.06;;;16.92;93.15
69971;BME280;57301;50.328;8.542;2023-08-01T07:08:50;97014.97;;;17.04;91.59
69971;BME280;57301;50.328;8.542;2023-08-01T07:11:16;97021.56;;;17.19;91.56
69971;BME280;57301;50.328;8.542;2023-08-01T07:13:43;97004.41;;;16.90;91.37
69971;BME280;57301;50.328;8.542;2023-08-01T07:16:09;97005.78;;;16.63;89.97
69971;BME280;57301;50.328;8.542;2023-08-01T07:18:36;97006.75;;;16.99;91.17
69971;BME280;57301;50.328;8.542;2023-08-01T07:21:03;97002.69;;;17.08;91.84
69971;BME280;57301;50.328;8.542;2023-08-01T07:23:31;97002.53;;;17.03;89.12
69971;BME280;57301;50.328;8.542;2023-08-01T07:26:16;97007.81;;;17.09;89.61
69971;BME280;57301;50.328;8.542;2023-08-01T07:28:43;97003.63;;;17.13;89.45
69971;BME280;57301;50.328;8.542;2023-08-01T07:31:10;97012.13;;;16.99;89.63
69971;BME280;57301;50.328;8.542;2023-08-01T07:33:36;97017.66;;;17.04;90.56
69971;BME280;57301;50.328;8.542;2023-08-01T07:36:04;97023.75;;;17.11;90.81
69971;BME280;57301;50.328;8.542;2023-08-01T07:38:30;97021.28;;;17.09;90.20
69971;BME280;57301;50.328;8.542;2023-08-01T07:41:04;97015.44;;;17.01;89.35
69971;BME280;57301;50.328;8.542;2023-08-01T07:43:31;97027.94;;;16.95;89.88
69971;BME280;57301;50.328;8.542;2023-08-01T07:45:58;97031.88;;;17.34;88.65
69971;BME280;57301;50.328;8.542;2023-08-01T07:48:25;97034.09;;;17.61;86.20
69971;BME280;57301;50.328;8.542;2023-08-01T07:50:51;97032.28;;;18.77;86.68
69971;BME280;57301;50.328;8.542;2023-08-01T07:53:18;97032.22;;;19.34;79.17
69971;BME280;57301;50.328;8.542;2023-08-01T07:55:45;97037.72;;;19.73;82.38
69971;BME280;57301;50.328;8.542;2023-08-01T07:58:11;97035.09;;;19.78;76.97
69971;BME280;57301;50.328;8.542;2023-08-01T08:00:38;97034.81;;;19.96;74.59
69971;BME280;57301;50.328;8.542;2023-08-01T08:03:04;97040.50;;;20.38;74.11
69971;BME280;57301;50.328;8.542;2023-08-01T08:05:32;97029.13;;;20.85;71.58
69971;BME280;57301;50.328;8.542;2023-08-01T08:07:58;97034.59;;;20.90;71.57
69971;BME280;57301;50.328;8.542;2023-08-01T08:10:25;97010.63;;;21.04;67.54
69971;BME280;57301;50.328;8.542;2023-08-01T08:12:51;97034.41;;;20.97;67.78
69971;BME280;57301;50.328;8.542;2023-08-01T08:15:19;97031.56;;;22.20;68.36
69971;BME280;57301;50.328;8.542;2023-08-01T08:17:46;97041.91;;;21.44;66.53
69971;BME280;57301;50.328;8.542;2023-08-01T08:20:22;97047.75;;;20.77;69.19
69971;BME280;57301;50.328;8.542;2023-08-01T08:23:12;97042.47;;;20.92;69.87
69971;BME280;57301;50.328;8.542;2023-08-01T08:26:06;97037.44;;;20.13;69.21
69971;BME280;57301;50.328;8.542;2023-08-01T08:28:45;97045.38;;;20.85;67.32
69971;BME280;57301;50.328;8.542;2023-08-01T08:31:12;97047.97;;;21.24;69.10
69971;BME280;57301;50.328;8.542;2023-08-01T08:33:51;97038.75;;;21.25;64.39
69971;BME280;57301;50.328;8.542;2023-08-01T08:36:20;97052.31;;;21.57;66.14
69971;BME280;57301;50.328;8.542;2023-08-01T08:38:58;97043.97;;;22.06;64.60
69971;BME280;57301;50.328;8.542;2023-08-01T08:41:38;97055.88;;;22.00;62.35
69971;BME280;57301;50.328;8.542;2023-08-01T08:44:07;97042.81;;;22.39;63.95
69971;BME280;57301;50.328;8.542;2023-08-01T08:46:41;97046.84;;;22.32;63.02
69971;BME280;57301;50.328;8.542;2023-08-01T08:49:10;97054.59;;;22.70;60.44
69971;BME280;57301;50.328;8.542;2023-08-01T08:51:37;97055.28;;;22.35;59.51
69971;BME280;57301;50.328;8.542;2023-08-01T08:54:05;97061.69;;;21.77;61.98
69971;BME280;57301;50.328;8.542;2023-08-01T08:56:36;97059.91;;;21.55;64.37
69971;BME280;57301;50.328;8.542;2023-08-01T08:59:05;97062.00;;;21.80;64.95
69971;BME280;57301;50.328;8.542;2023-08-01T09:01:37;97053.53;;;22.71;61.95
69971;BME280;57301;50.328;8.542;2023-08-01T09:04:08;97061.88;;;22.07;61.86
69971;BME280;57301;50.328;8.542;2023-08-01T09:06:40;97062.84;;;21.86;63.66
69971;BME280;57301;50.328;8.542;2023-08-01T09:09:11;97063.69;;;21.54;63.31
69971;BME280;57301;50.328;8.542;2023-08-01T09:11:51;97059.22;;;21.38;64.73
69971;BME280;57301;50.328;8.542;2023-08-01T09:14:24;97053.06;;;21.85;64.17
69971;BME280;57301;50.328;8.542;2023-08-01T09:16:55;97070.19;;;22.33;61.64
69971;BME280;57301;50.328;8.542;2023-08-01T09:19:31;97068.16;;;22.55;62.28
69971;BME280;57301;50.328;8.542;2023-08-01T09:22:13;97055.78;;;22.95;61.98
69971;BME280;57301;50.328;8.542;2023-08-01T09:24:50;97054.00;;;22.06;59.18
69971;BME280;57301;50.328;8.542;2023-08-01T09:27:17;97052.00;;;22.96;58.00
69971;BME280;57301;50.328;8.542;2023-08-01T09:29:46;97050.25;;;22.59;57.63
69971;BME280;57301;50.328;8.542;2023-08-01T09:32:13;97060.88;;;22.13;59.00
69971;BME280;57301;50.328;8.542;2023-08-01T09:34:47;97060.94;;;21.22;61.25
69971;BME280;57301;50.328;8.542;2023-08-01T09:37:15;97067.91;;;21.13;64.16
69971;BME280;57301;50.328;8.542;2023-08-01T09:39:42;97076.13;;;20.69;65.57
69971;BME280;57301;50.328;8.542;2023-08-01T09:42:09;97076.25;;;20.57;66.83
69971;BME280;57301;50.328;8.542;2023-08-01T09:44:35;97075.16;;;20.58;68.99
69971;BME280;57301;50.328;8.542;2023-08-01T09:47:08;97076.88;;;20.64;69.21
69971;BME280;57301;50.328;8.542;2023-08-01T09:49:49;97076.34;;;20.67;69.30
69971;BME280;57301;50.328;8.542;2023-08-01T09:52:29;97084.88;;;20.37;70.53
69971;BME280;57301;50.328;8.542;2023-08-01T09:55:07;97083.22;;;20.15;71.53
69971;BME280;57301;50.328;8.542;2023-08-01T09:57:37;97090.78;;;19.45;71.93
69971;BME280;57301;50.328;8.542;2023-08-01T10:00:09;97101.25;;;18.96;76.39
69971;BME280;57301;50.328;8.542;2023-08-01T10:02:43;97104.53;;;18.46;79.40
69971;BME280;57301;50.328;8.542;2023-08-01T10:05:18;97110.44;;;18.43;79.20
69971;BME280;57301;50.328;8.542;2023-08-01T10:07:48;97114.78;;;18.44;80.41
69971;BME280;57301;50.328;8.542;2023-08-01T10:10:20;97104.22;;;18.43;79.85
69971;BME280;57301;50.328;8.542;2023-08-01T10:12:49;97101.13;;;18.51;78.78
69971;BME280;57301;50.328;8.542;2023-08-01T10:15:22;97108.16;;;19.04;77.79
69971;BME280;57301;50.328;8.542;2023-08-01T10:18:11;97102.75;;;19.49;77.09
69971;BME280;57301;50.328;8.542;2023-08-01T10:20:41;97103.75;;;20.71;76.02
69971;BME280;57301;50.328;8.542;2023-08-01T10:23:09;97092.38;;;21.45;70.07
69971;BME280;57301;50.328;8.542;2023-08-01T10:25:39;97088.22;;;21.69;68.86
69971;BME280;57301;50.328;8.542;2023-08-01T10:28:12;97092.09;;;20.71;67.28
69971;BME280;57301;50.328;8.542;2023-08-01T10:30:53;97100.72;;;20.89;67.29
69971;BME280;57301;50.328;8.542;2023-08-01T10:33:33;97094.97;;;20.86;67.61
69971;BME280;57301;50.328;8.542;2023-08-01T10:38:57;97089.16;;;21.53;64.29
69971;BME280;57301;50.328;8.542;2023-08-01T10:41:31;97105.75;;;21.30;66.02
69971;BME280;57301;50.328;8.542;2023-08-01T10:52:01;97125.94;;;20.46;67.57
69971;BME280;57301;50.328;8.542;2023-08-01T10:54:43;97131.25;;;19.57;70.36
69971;BME280;57301;50.328;8.542;2023-08-01T10:57:15;97138.25;;;19.24;73.11
69971;BME280;57301;50.328;8.542;2023-08-01T10:59:45;97130.44;;;18.83;72.38
69971;BME280;57301;50.328;8.542;2023-08-01T11:02:19;97118.09;;;18.87;72.90
69971;BME280;57301;50.328;8.542;2023-08-01T11:05:10;97120.56;;;18.88;74.25
69971;BME280;57301;50.328;8.542;2023-08-01T11:08:00;97129.16;;;20.26;72.93
69971;BME280;57301;50.328;8.542;2023-08-01T11:10:29;97127.75;;;21.06;71.52
69971;BME280;57301;50.328;8.542;2023-08-01T11:13:02;97125.19;;;21.22;68.58
69971;BME280;57301;50.328;8.542;2023-08-01T11:15:28;97125.09;;;20.46;71.35
69971;BME280;57301;50.328;8.542;2023-08-01T11:18:01;97126.06;;;20.56;72.91
69971;BME280;57301;50.328;8.542;2023-08-01T11:20:38;97118.50;;;21.56;69.03
69971;BME280;57301;50.328;8.542;2023-08-01T11:23:14;97125.41;;;20.93;69.49
69971;BME280;57301;50.328;8.542;2023-08-01T11:25:42;97130.41;;;20.79;71.02
69971;BME280;57301;50.328;8.542;2023-08-01T11:28:16;97127.56;;;20.91;69.82
69971;BME280;57301;50.328;8.542;2023-08-01T11:30:43;97124.19;;;20.40;69.23
69971;BME280;57301;50.328;8.542;2023-08-01T11:33:18;97126.41;;;21.09;68.37
69971;BME280;57301;50.328;8.542;2023-08-01T11:35:55;97129.41;;;21.34;66.59
69971;BME280;57301;50.328;8.542;2023-08-01T11:38:29;97128.25;;;22.21;66.68
69971;BME280;57301;50.328;8.542;2023-08-01T11:41:00;97128.88;;;21.64;64.67
69971;BME280;57301;50.328;8.542;2023-08-01T11:43:42;97129.50;;;22.09;63.31
69971;BME280;57301;50.328;8.542;2023-08-01T11:46:19;97135.38;;;22.33;61.59
69971;BME280;57301;50.328;8.542;2023-08-01T11:48:46;97135.56;;;22.16;60.13
69971;BME280;57301;50.328;8.542;2023-08-01T11:51:13;97130.16;;;22.21;58.00
69971;BME280;57301;50.328;8.542;2023-08-01T11:53:40;97126.91;;;22.66;59.33
69971;BME280;57301;50.328;8.542;2023-08-01T11:56:07;97132.06;;;23.46;56.56
69971;BME280;57301;50.328;8.542;2023-08-01T11:58:35;97133.97;;;23.45;55.03
69971;BME280;57301;50.328;8.542;2023-08-01T12:01:15;97140.81;;;23.94;54.89
69971;BME280;57301;50.328;8.542;2023-08-01T12:03:46;97144.63;;;23.62;53.11
69971;BME280;57301;50.328;8.542;2023-08-01T12:06:18;97134.00;;;22.77;53.88
69971;BME280;57301;50.328;8.542;2023-08-01T12:08:47;97139.69;;;23.54;54.66
69971;BME280;57301;50.328;8.542;2023-08-01T12:11:29;97128.78;;;23.39;52.38
69971;BME280;57301;50.328;8.542;2023-08-01T12:14:17;97131.25;;;23.45;52.04
69971;BME280;57301;50.328;8.542;2023-08-01T12:16:49;97129.78;;;22.49;54.03
69971;BME280;57301;50.328;8.542;2023-08-01T12:19:20;97140.78;;;22.22;54.90
69971;BME280;57301;50.328;8.542;2023-08-01T12:22:11;97133.34;;;22.55;55.23
69971;BME280;57301;50.328;8.542;2023-08-01T12:24:38;97143.72;;;22.21;56.04
69971;BME280;57301;50.328;8.542;2023-08-01T12:29:54;97152.75;;;21.35;57.59
69971;BME280;57301;50.328;8.542;2023-08-01T12:32:23;97142.28;;;22.50;55.88
69971;BME280;57301;50.328;8.542;2023-08-01T12:34:50;97129.09;;;23.63;52.14
69971;BME280;57301;50.328;8.542;2023-08-01T12:37:22;97137.28;;;23.73;50.58
69971;BME280;57301;50.328;8.542;2023-08-01T12:39:49;97140.22;;;23.56;49.89
69971;BME280;57301;50.328;8.542;2023-08-01T12:42:15;97136.75;;;23.96;51.65
69971;BME280;57301;50.328;8.542;2023-08-01T12:44:42;97142.06;;;24.83;48.40
69971;BME280;57301;50.328;8.542;2023-08-01T12:47:08;97134.25;;;24.30;48.82
69971;BME280;57301;50.328;8.542;2023-08-01T12:49:37;97133.94;;;24.68;47.21
69971;BME280;57301;50.328;8.542;2023-08-01T12:52:04;97133.47;;;23.84;49.10
69971;BME280;57301;50.328;8.542;2023-08-01T12:54:31;97132.75;;;25.49;45.46
69971;BME280;57301;50.328;8.542;2023-08-01T12:56:57;97134.38;;;26.23;43.38
69971;BME280;57301;50.328;8.542;2023-08-01T12:59:24;97136.50;;;25.97;43.45
69971;BME280;57301;50.328;8.542;2023-08-01T13:01:50;97138.31;;;26.07;42.98
69971;BME280;57301;50.328;8.542;2023-08-01T13:04:17;97133.16;;;27.11;41.53
69971;BME280;57301;50.328;8.542;2023-08-01T13:06:44;97145.44;;;25.24;44.61
69971;BME280;57301;50.328;8.542;2023-08-01T13:09:11;97134.31;;;26.81;41.29
69971;BME280;57301;50.328;8.542;2023-08-01T13:11:41;97124.88;;;27.16;40.07
69971;BME280;57301;50.328;8.542;2023-08-01T13:14:09;97144.69;;;27.70;40.44
69971;BME280;57301;50.328;8.542;2023-08-01T13:16:36;97142.09;;;25.82;42.06